GIA842 WADD-WSSS
Flight info
| Callsign | GIA842 |
|---|---|
| Flight time | N/A |
| Altitude | 34000 |
| Route | BORGI DCT UDONO M635 SUMDI/N0466F360 M635 SURGA T23 UGEBO UGEBO1B |
| Aircraft | B738/M-SDE2E3FGHIRWYZ/LB1 |
Departure
| Time | 2026-05-06 05:27 |
|---|---|
| Airport | Denpasar I Gusti Ngurah Rai International Airport (WADD) |
Arrival
| Time | N/A |
|---|---|
| Airport | Singapore Changi Airport (WSSS) |
| Time | Latitude | Longitude | Altitude | Speed | Heading |
|---|---|---|---|---|---|
| 2026-05-06 05:14 | -8.74576 | 115.16275 | 32 ft | 0 kts | 358° |
| 2026-05-06 05:19 | -8.74591 | 115.16275 | 31 ft | 4 kts | 358° |
| 2026-05-06 05:19 | -8.74618 | 115.16277 | 31 ft | 4 kts | 358° |
| 2026-05-06 05:19 | -8.74645 | 115.16278 | 29 ft | 4 kts | 357° |
| 2026-05-06 05:20 | -8.74670 | 115.16279 | 31 ft | 4 kts | 355° |
| 2026-05-06 05:20 | -8.74692 | 115.16286 | 30 ft | 4 kts | 299° |
| 2026-05-06 05:20 | -8.74696 | 115.16310 | 28 ft | 3 kts | 268° |
| 2026-05-06 05:20 | -8.74696 | 115.16317 | 29 ft | 0 kts | 268° |
| 2026-05-06 05:23 | -8.74696 | 115.16311 | 28 ft | 2 kts | 267° |
| 2026-05-06 05:23 | -8.74697 | 115.16290 | 32 ft | 4 kts | 267° |
| 2026-05-06 05:23 | -8.74701 | 115.16196 | 32 ft | 9 kts | 268° |
| 2026-05-06 05:24 | -8.74704 | 115.16126 | 32 ft | 11 kts | 268° |
| 2026-05-06 05:24 | -8.74707 | 115.16044 | 32 ft | 13 kts | 268° |
| 2026-05-06 05:24 | -8.74711 | 115.15947 | 32 ft | 15 kts | 268° |
| 2026-05-06 05:24 | -8.74716 | 115.15838 | 32 ft | 16 kts | 268° |
| 2026-05-06 05:25 | -8.74720 | 115.15719 | 31 ft | 18 kts | 267° |
| 2026-05-06 05:25 | -8.74726 | 115.15586 | 31 ft | 19 kts | 267° |
| 2026-05-06 05:25 | -8.74731 | 115.15456 | 31 ft | 14 kts | 266° |
| 2026-05-06 05:25 | -8.74794 | 115.15392 | 30 ft | 16 kts | 184° |
| 2026-05-06 05:26 | -8.74870 | 115.15398 | 27 ft | 8 kts | 162° |
| 2026-05-06 05:26 | -8.74896 | 115.15447 | 28 ft | 9 kts | 90° |
| 2026-05-06 05:26 | -8.74893 | 115.15511 | 28 ft | 10 kts | 88° |
| 2026-05-06 05:26 | -8.74883 | 115.15746 | 27 ft | 67 kts | 87° |
| 2026-05-06 05:27 | -8.74855 | 115.16440 | 28 ft | 129 kts | 88° |
| 2026-05-06 05:27 | -8.74820 | 115.17522 | 125 ft | 170 kts | 87° |
| 2026-05-06 05:27 | -8.74734 | 115.18678 | 998 ft | 160 kts | 89° |
| 2026-05-06 05:27 | -8.74676 | 115.19812 | 1633 ft | 175 kts | 89° |
| 2026-05-06 05:28 | -8.74632 | 115.21172 | 1882 ft | 204 kts | 90° |
| 2026-05-06 05:28 | -8.74584 | 115.22665 | 2197 ft | 224 kts | 89° |
| 2026-05-06 05:28 | -8.74526 | 115.24301 | 2638 ft | 242 kts | 88° |
| 2026-05-06 05:28 | -8.74460 | 115.26031 | 3153 ft | 253 kts | 88° |
| 2026-05-06 05:29 | -8.74387 | 115.27856 | 3946 ft | 257 kts | 88° |
| 2026-05-06 05:29 | -8.74315 | 115.29654 | 4724 ft | 262 kts | 87° |
| 2026-05-06 05:29 | -8.74241 | 115.31494 | 5527 ft | 264 kts | 87° |
| 2026-05-06 05:29 | -8.74165 | 115.33355 | 6312 ft | 268 kts | 87° |
| 2026-05-06 05:30 | -8.74086 | 115.35275 | 7018 ft | 270 kts | 87° |
| 2026-05-06 05:30 | -8.74008 | 115.37151 | 7771 ft | 272 kts | 87° |
| 2026-05-06 05:30 | -8.73929 | 115.39085 | 8432 ft | 278 kts | 88° |
| 2026-05-06 05:30 | -8.73847 | 115.41047 | 9140 ft | 281 kts | 88° |
| 2026-05-06 05:31 | -8.73765 | 115.43027 | 9875 ft | 283 kts | 88° |
| 2026-05-06 05:31 | -8.73682 | 115.45039 | 10382 ft | 294 kts | 88° |
| 2026-05-06 05:31 | -8.73594 | 115.47183 | 10529 ft | 316 kts | 88° |
| 2026-05-06 05:31 | -8.73442 | 115.49443 | 10914 ft | 328 kts | 80° |
| 2026-05-06 05:32 | -8.72599 | 115.51608 | 11473 ft | 336 kts | 60° |
| 2026-05-06 05:32 | -8.71127 | 115.53471 | 12014 ft | 344 kts | 48° |
| 2026-05-06 05:32 | -8.69405 | 115.55179 | 12543 ft | 351 kts | 41° |
| 2026-05-06 05:32 | -8.67271 | 115.56411 | 13055 ft | 359 kts | 16° |
| 2026-05-06 05:33 | -8.64782 | 115.56577 | 13650 ft | 363 kts | 350° |
| 2026-05-06 05:33 | -8.62402 | 115.55767 | 14226 ft | 362 kts | 328° |
| 2026-05-06 05:33 | -8.60475 | 115.54170 | 14819 ft | 360 kts | 307° |
| 2026-05-06 05:33 | -8.59193 | 115.52014 | 15354 ft | 359 kts | 288° |
| 2026-05-06 05:34 | -8.58505 | 115.49602 | 15961 ft | 358 kts | 283° |
| 2026-05-06 05:34 | -8.57940 | 115.47140 | 16467 ft | 361 kts | 281° |
| 2026-05-06 05:34 | -8.57402 | 115.44653 | 17014 ft | 364 kts | 281° |
| 2026-05-06 05:34 | -8.56858 | 115.42150 | 17558 ft | 365 kts | 281° |
| 2026-05-06 05:35 | -8.56303 | 115.39647 | 18209 ft | 365 kts | 282° |
| 2026-05-06 05:35 | -8.55734 | 115.37129 | 18522 ft | 372 kts | 282° |
| 2026-05-06 05:35 | -8.55150 | 115.34585 | 19053 ft | 371 kts | 282° |
| 2026-05-06 05:35 | -8.54566 | 115.32057 | 19624 ft | 370 kts | 282° |
| 2026-05-06 05:36 | -8.53988 | 115.29505 | 19976 ft | 376 kts | 282° |
| 2026-05-06 05:36 | -8.53403 | 115.26928 | 20388 ft | 379 kts | 282° |
| 2026-05-06 05:36 | -8.52807 | 115.24337 | 20907 ft | 378 kts | 282° |
| 2026-05-06 05:36 | -8.52204 | 115.21743 | 21258 ft | 383 kts | 283° |
| 2026-05-06 05:37 | -8.51585 | 115.19096 | 21547 ft | 389 kts | 282° |
| 2026-05-06 05:37 | -8.50959 | 115.16434 | 21971 ft | 391 kts | 283° |
| 2026-05-06 05:37 | -8.50327 | 115.13748 | 22334 ft | 394 kts | 282° |
| 2026-05-06 05:37 | -8.49690 | 115.11046 | 22677 ft | 398 kts | 283° |
| 2026-05-06 05:38 | -8.49047 | 115.08319 | 23062 ft | 399 kts | 283° |
| 2026-05-06 05:38 | -8.48402 | 115.05586 | 23506 ft | 399 kts | 282° |
| 2026-05-06 05:38 | -8.47761 | 115.02870 | 23916 ft | 398 kts | 283° |
| 2026-05-06 05:38 | -8.46854 | 115.00211 | 24133 ft | 404 kts | 297° |
| 2026-05-06 05:39 | -8.45204 | 114.97893 | 24333 ft | 411 kts | 313° |
| 2026-05-06 05:39 | -8.42958 | 114.96097 | 24660 ft | 414 kts | 327° |
| 2026-05-06 05:39 | -8.40463 | 114.94636 | 24978 ft | 416 kts | 328° |
| 2026-05-06 05:39 | -8.37949 | 114.93160 | 25232 ft | 420 kts | 328° |
| 2026-05-06 05:40 | -8.35434 | 114.91642 | 25527 ft | 422 kts | 327° |
| 2026-05-06 05:40 | -8.32910 | 114.90119 | 25849 ft | 423 kts | 327° |
| 2026-05-06 05:40 | -8.30370 | 114.88610 | 26147 ft | 425 kts | 328° |
| 2026-05-06 05:40 | -8.27814 | 114.87099 | 26413 ft | 427 kts | 328° |
| 2026-05-06 05:41 | -8.25242 | 114.85578 | 26681 ft | 429 kts | 328° |
| 2026-05-06 05:41 | -8.22656 | 114.84047 | 26931 ft | 432 kts | 328° |
| 2026-05-06 05:41 | -8.20061 | 114.82511 | 27206 ft | 434 kts | 328° |
| 2026-05-06 05:41 | -8.17451 | 114.80965 | 27498 ft | 435 kts | 328° |
| 2026-05-06 05:42 | -8.14836 | 114.79415 | 27771 ft | 437 kts | 328° |
| 2026-05-06 05:42 | -8.12208 | 114.77857 | 28027 ft | 439 kts | 328° |
| 2026-05-06 05:42 | -8.09568 | 114.76292 | 28289 ft | 441 kts | 328° |
| 2026-05-06 05:42 | -8.07813 | 114.75252 | 28455 ft | 442 kts | 328° |
| 2026-05-06 05:43 | -8.05121 | 114.73656 | 28720 ft | 444 kts | 328° |
| 2026-05-06 05:43 | -8.02450 | 114.72073 | 28970 ft | 446 kts | 328° |
| 2026-05-06 05:43 | -7.99809 | 114.70508 | 29208 ft | 447 kts | 328° |
| 2026-05-06 05:43 | -7.97086 | 114.68894 | 29455 ft | 449 kts | 328° |
| 2026-05-06 05:44 | -7.94384 | 114.67293 | 29696 ft | 451 kts | 328° |
| 2026-05-06 05:44 | -7.91677 | 114.65690 | 29923 ft | 452 kts | 328° |
| 2026-05-06 05:44 | -7.88954 | 114.64088 | 30110 ft | 454 kts | 329° |
| 2026-05-06 05:44 | -7.86179 | 114.62549 | 30311 ft | 456 kts | 330° |
| 2026-05-06 05:45 | -7.83369 | 114.61045 | 30508 ft | 457 kts | 330° |
| 2026-05-06 05:45 | -7.80553 | 114.59546 | 30702 ft | 459 kts | 330° |
| 2026-05-06 05:45 | -7.77727 | 114.58032 | 30886 ft | 460 kts | 330° |
| 2026-05-06 05:45 | -7.74900 | 114.56504 | 31070 ft | 462 kts | 330° |
| 2026-05-06 05:46 | -7.72071 | 114.54968 | 31253 ft | 463 kts | 330° |
| 2026-05-06 05:46 | -7.69230 | 114.53425 | 31436 ft | 464 kts | 330° |
| 2026-05-06 05:46 | -7.66484 | 114.51718 | 31590 ft | 464 kts | 319° |
| 2026-05-06 05:46 | -7.64209 | 114.49426 | 31745 ft | 462 kts | 306° |
| 2026-05-06 05:47 | -7.62484 | 114.46707 | 31939 ft | 460 kts | 294° |
| 2026-05-06 05:47 | -7.61333 | 114.43703 | 32119 ft | 460 kts | 288° |
| 2026-05-06 05:47 | -7.60303 | 114.40651 | 32272 ft | 461 kts | 288° |
| 2026-05-06 05:47 | -7.59234 | 114.37587 | 32368 ft | 465 kts | 288° |
| 2026-05-06 05:48 | -7.58123 | 114.34529 | 32549 ft | 465 kts | 290° |
| 2026-05-06 05:48 | -7.56710 | 114.31594 | 32811 ft | 466 kts | 301° |
| 2026-05-06 05:48 | -7.54790 | 114.28974 | 33124 ft | 465 kts | 310° |
| 2026-05-06 05:48 | -7.52484 | 114.26688 | 33337 ft | 467 kts | 320° |
| 2026-05-06 05:49 | -7.49865 | 114.24737 | 33521 ft | 468 kts | 323° |
| 2026-05-06 05:49 | -7.47197 | 114.22847 | 33729 ft | 469 kts | 323° |
| 2026-05-06 05:49 | -7.44523 | 114.20970 | 33843 ft | 470 kts | 323° |
| 2026-05-06 05:49 | -7.41843 | 114.19078 | 33837 ft | 470 kts | 323° |
| 2026-05-06 05:50 | -7.36520 | 114.15265 | 33839 ft | 468 kts | 323° |
| 2026-05-06 05:50 | -7.31248 | 114.11447 | 33843 ft | 466 kts | 323° |
| 2026-05-06 05:51 | -7.25996 | 114.07638 | 33840 ft | 464 kts | 323° |
| 2026-05-06 05:51 | -7.20761 | 114.03843 | 33846 ft | 463 kts | 322° |
| 2026-05-06 05:52 | -7.15531 | 114.00054 | 33843 ft | 463 kts | 322° |
| 2026-05-06 05:52 | -7.10290 | 113.96260 | 33849 ft | 464 kts | 323° |
| 2026-05-06 05:53 | -7.05045 | 113.92462 | 33843 ft | 465 kts | 322° |
| 2026-05-06 05:53 | -6.99778 | 113.88650 | 33844 ft | 467 kts | 323° |
| 2026-05-06 05:54 | -6.94501 | 113.84833 | 33845 ft | 468 kts | 322° |
| 2026-05-06 05:54 | -6.89211 | 113.81005 | 33842 ft | 469 kts | 323° |
| 2026-05-06 05:55 | -6.83914 | 113.77173 | 33837 ft | 469 kts | 323° |
| 2026-05-06 05:55 | -6.78653 | 113.73368 | 33841 ft | 469 kts | 322° |
| 2026-05-06 05:56 | -6.73362 | 113.69539 | 33842 ft | 468 kts | 322° |
| 2026-05-06 05:56 | -6.68073 | 113.65713 | 33837 ft | 468 kts | 323° |
| 2026-05-06 05:57 | -6.62795 | 113.61899 | 33835 ft | 467 kts | 323° |
| 2026-05-06 05:57 | -6.57525 | 113.58091 | 33835 ft | 466 kts | 322° |
| 2026-05-06 05:58 | -6.52265 | 113.54292 | 33835 ft | 465 kts | 323° |
| 2026-05-06 05:58 | -6.47011 | 113.50495 | 33835 ft | 465 kts | 323° |
| 2026-05-06 05:59 | -6.41778 | 113.46715 | 33836 ft | 464 kts | 322° |
| 2026-05-06 05:59 | -6.36533 | 113.42926 | 33835 ft | 464 kts | 323° |
| 2026-05-06 06:00 | -6.31291 | 113.39142 | 33836 ft | 464 kts | 323° |
| 2026-05-06 06:00 | -6.26072 | 113.35325 | 33828 ft | 464 kts | 320° |
| 2026-05-06 06:01 | -6.21734 | 113.30569 | 33841 ft | 462 kts | 306° |
| 2026-05-06 06:01 | -6.17851 | 113.25411 | 33836 ft | 462 kts | 306° |
| 2026-05-06 06:02 | -6.13958 | 113.20258 | 33825 ft | 463 kts | 307° |
| 2026-05-06 06:02 | -6.10035 | 113.15123 | 33827 ft | 464 kts | 307° |
| 2026-05-06 06:03 | -6.06096 | 113.09996 | 33830 ft | 464 kts | 307° |
| 2026-05-06 06:03 | -6.02147 | 113.04863 | 33826 ft | 464 kts | 307° |
| 2026-05-06 06:04 | -5.98199 | 112.99732 | 33826 ft | 464 kts | 307° |
| 2026-05-06 06:04 | -5.94252 | 112.94602 | 33822 ft | 465 kts | 307° |
| 2026-05-06 06:05 | -5.90298 | 112.89463 | 33826 ft | 465 kts | 307° |
| 2026-05-06 06:05 | -5.86343 | 112.84325 | 33825 ft | 465 kts | 307° |
| 2026-05-06 06:06 | -5.82384 | 112.79182 | 33829 ft | 466 kts | 307° |
| 2026-05-06 06:06 | -5.78416 | 112.74028 | 33828 ft | 466 kts | 308° |
| 2026-05-06 06:07 | -5.74451 | 112.68881 | 33828 ft | 466 kts | 308° |
| 2026-05-06 06:07 | -5.70477 | 112.63722 | 33827 ft | 466 kts | 308° |
| 2026-05-06 06:08 | -5.66508 | 112.58572 | 33827 ft | 466 kts | 308° |
| 2026-05-06 06:08 | -5.62536 | 112.53420 | 33824 ft | 466 kts | 308° |
| 2026-05-06 06:09 | -5.58565 | 112.48270 | 33817 ft | 467 kts | 308° |
| 2026-05-06 06:09 | -5.54584 | 112.43107 | 33825 ft | 468 kts | 308° |
| 2026-05-06 06:10 | -5.50595 | 112.37936 | 33822 ft | 469 kts | 308° |
| 2026-05-06 06:10 | -5.46622 | 112.32787 | 33824 ft | 470 kts | 308° |
| 2026-05-06 06:11 | -5.42613 | 112.27592 | 33831 ft | 471 kts | 308° |
| 2026-05-06 06:11 | -5.38598 | 112.22391 | 33826 ft | 471 kts | 308° |
| 2026-05-06 06:12 | -5.34581 | 112.17189 | 33820 ft | 471 kts | 308° |
| 2026-05-06 06:12 | -5.30537 | 112.11952 | 33824 ft | 471 kts | 308° |
| 2026-05-06 06:13 | -5.26524 | 112.06757 | 33817 ft | 471 kts | 308° |
| 2026-05-06 06:13 | -5.22506 | 112.01558 | 33820 ft | 472 kts | 308° |
| 2026-05-06 06:14 | -5.18506 | 111.96382 | 33832 ft | 472 kts | 308° |
| 2026-05-06 06:14 | -5.14476 | 111.91170 | 33831 ft | 473 kts | 308° |
| 2026-05-06 06:15 | -5.10436 | 111.85946 | 33824 ft | 474 kts | 308° |
| 2026-05-06 06:15 | -5.06397 | 111.80723 | 33816 ft | 474 kts | 308° |
| 2026-05-06 06:16 | -5.02352 | 111.75493 | 33826 ft | 474 kts | 308° |
| 2026-05-06 06:16 | -4.98317 | 111.70278 | 33816 ft | 473 kts | 308° |
| 2026-05-06 06:17 | -4.94288 | 111.65072 | 33819 ft | 472 kts | 309° |
| 2026-05-06 06:17 | -4.90258 | 111.59866 | 33818 ft | 473 kts | 309° |
| 2026-05-06 06:18 | -4.86222 | 111.54654 | 33826 ft | 474 kts | 309° |
| 2026-05-06 06:18 | -4.82147 | 111.49392 | 33826 ft | 475 kts | 308° |
| 2026-05-06 06:19 | -4.78087 | 111.44150 | 33815 ft | 477 kts | 309° |
| 2026-05-06 06:19 | -4.74019 | 111.38899 | 33830 ft | 477 kts | 308° |
| 2026-05-06 06:20 | -4.69974 | 111.33679 | 33817 ft | 477 kts | 308° |
| 2026-05-06 06:20 | -4.65900 | 111.28420 | 33811 ft | 477 kts | 308° |
| 2026-05-06 06:21 | -4.61834 | 111.23175 | 33814 ft | 477 kts | 308° |
| 2026-05-06 06:21 | -4.57782 | 111.17924 | 33822 ft | 476 kts | 309° |
| 2026-05-06 06:22 | -4.53738 | 111.12671 | 33826 ft | 476 kts | 309° |
| 2026-05-06 06:22 | -4.49694 | 111.07417 | 33818 ft | 476 kts | 309° |
| 2026-05-06 06:23 | -4.45652 | 111.02167 | 33829 ft | 475 kts | 309° |
| 2026-05-06 06:23 | -4.41612 | 110.96924 | 33815 ft | 475 kts | 309° |
| 2026-05-06 06:24 | -4.38255 | 110.92567 | 33826 ft | 475 kts | 308° |
| 2026-05-06 06:24 | -4.34216 | 110.87326 | 33826 ft | 475 kts | 308° |
| 2026-05-06 06:25 | -4.30181 | 110.82092 | 33820 ft | 475 kts | 308° |
| 2026-05-06 06:26 | -4.24131 | 110.74244 | 33824 ft | 474 kts | 309° |
| 2026-05-06 06:26 | -4.20106 | 110.69026 | 33820 ft | 473 kts | 309° |
| 2026-05-06 06:27 | -4.16086 | 110.63813 | 33820 ft | 472 kts | 309° |
| 2026-05-06 06:27 | -4.12045 | 110.58575 | 33822 ft | 472 kts | 309° |
| 2026-05-06 06:28 | -4.08058 | 110.53408 | 33820 ft | 471 kts | 309° |
| 2026-05-06 06:28 | -4.04050 | 110.48214 | 33820 ft | 471 kts | 309° |
| 2026-05-06 06:29 | -4.00047 | 110.43027 | 33824 ft | 471 kts | 309° |
| 2026-05-06 06:29 | -3.96041 | 110.37839 | 33817 ft | 470 kts | 309° |
| 2026-05-06 06:30 | -3.91851 | 110.32815 | 33825 ft | 469 kts | 312° |
| 2026-05-06 06:30 | -3.87551 | 110.27903 | 33821 ft | 469 kts | 313° |
| 2026-05-06 06:31 | -3.83261 | 110.22971 | 33821 ft | 469 kts | 313° |
| 2026-05-06 06:31 | -3.79001 | 110.18023 | 33821 ft | 469 kts | 312° |
| 2026-05-06 06:32 | -3.74747 | 110.13063 | 33822 ft | 469 kts | 312° |
| 2026-05-06 06:32 | -3.70491 | 110.08098 | 33819 ft | 470 kts | 312° |
| 2026-05-06 06:33 | -3.66232 | 110.03134 | 33820 ft | 470 kts | 312° |
| 2026-05-06 06:33 | -3.61972 | 109.98170 | 33819 ft | 470 kts | 312° |
| 2026-05-06 06:34 | -3.57706 | 109.93200 | 33826 ft | 471 kts | 312° |
| 2026-05-06 06:34 | -3.53436 | 109.88227 | 33819 ft | 471 kts | 312° |
| 2026-05-06 06:35 | -3.49164 | 109.83252 | 33818 ft | 471 kts | 312° |
| 2026-05-06 06:35 | -3.44891 | 109.78276 | 33820 ft | 471 kts | 312° |
| 2026-05-06 06:36 | -3.40617 | 109.73300 | 33820 ft | 471 kts | 312° |
| 2026-05-06 06:36 | -3.36348 | 109.68329 | 33819 ft | 471 kts | 312° |
| 2026-05-06 06:37 | -3.32074 | 109.63355 | 33817 ft | 471 kts | 312° |
| 2026-05-06 06:37 | -3.27802 | 109.58384 | 33820 ft | 471 kts | 312° |
| 2026-05-06 06:38 | -3.23532 | 109.53415 | 33815 ft | 471 kts | 312° |
| 2026-05-06 06:38 | -3.19265 | 109.48450 | 33817 ft | 471 kts | 312° |
| 2026-05-06 06:39 | -3.14997 | 109.43486 | 33815 ft | 471 kts | 312° |
| 2026-05-06 06:39 | -3.10730 | 109.38522 | 33820 ft | 470 kts | 312° |
| 2026-05-06 06:40 | -3.06492 | 109.33593 | 33816 ft | 470 kts | 312° |
| 2026-05-06 06:40 | -3.02227 | 109.28633 | 33813 ft | 470 kts | 312° |
| 2026-05-06 06:41 | -2.97936 | 109.23643 | 33825 ft | 470 kts | 312° |
| 2026-05-06 06:41 | -2.93672 | 109.18685 | 33816 ft | 470 kts | 312° |
| 2026-05-06 06:42 | -2.89434 | 109.13758 | 33819 ft | 470 kts | 312° |
| 2026-05-06 06:42 | -2.85129 | 109.08775 | 33815 ft | 470 kts | 312° |
| 2026-05-06 06:43 | -2.80871 | 109.03859 | 33819 ft | 470 kts | 312° |
| 2026-05-06 06:43 | -2.76587 | 108.98911 | 33816 ft | 471 kts | 312° |
| 2026-05-06 06:44 | -2.72305 | 108.93962 | 33817 ft | 471 kts | 312° |
| 2026-05-06 06:44 | -2.68020 | 108.89009 | 33819 ft | 471 kts | 312° |
| 2026-05-06 06:45 | -2.63733 | 108.84056 | 33816 ft | 471 kts | 312° |
| 2026-05-06 06:45 | -2.59448 | 108.79105 | 33815 ft | 471 kts | 312° |
| 2026-05-06 06:46 | -2.55162 | 108.74152 | 33819 ft | 471 kts | 311° |
| 2026-05-06 06:46 | -2.50878 | 108.69202 | 33811 ft | 471 kts | 312° |
| 2026-05-06 06:47 | -2.46594 | 108.64250 | 33822 ft | 470 kts | 311° |
| 2026-05-06 06:47 | -2.42320 | 108.59297 | 33815 ft | 470 kts | 312° |
| 2026-05-06 06:48 | -2.38046 | 108.54339 | 33821 ft | 470 kts | 311° |
| 2026-05-06 06:48 | -2.33777 | 108.49390 | 33817 ft | 470 kts | 312° |
| 2026-05-06 06:49 | -2.29500 | 108.44432 | 33818 ft | 470 kts | 312° |
| 2026-05-06 06:49 | -2.25224 | 108.39476 | 33808 ft | 471 kts | 311° |
| 2026-05-06 06:50 | -2.20945 | 108.34517 | 33812 ft | 471 kts | 311° |
| 2026-05-06 06:50 | -2.16657 | 108.29548 | 33826 ft | 472 kts | 311° |
| 2026-05-06 06:51 | -2.12369 | 108.24577 | 33816 ft | 472 kts | 311° |
| 2026-05-06 06:51 | -2.08078 | 108.19605 | 33813 ft | 472 kts | 311° |
| 2026-05-06 06:52 | -2.03785 | 108.14631 | 33819 ft | 472 kts | 311° |
| 2026-05-06 06:52 | -1.99498 | 108.09657 | 33815 ft | 472 kts | 311° |
| 2026-05-06 06:53 | -1.95214 | 108.04683 | 33814 ft | 472 kts | 311° |
| 2026-05-06 06:53 | -1.90961 | 107.99746 | 33814 ft | 472 kts | 311° |
| 2026-05-06 06:54 | -1.86682 | 107.94778 | 33814 ft | 471 kts | 311° |
| 2026-05-06 06:54 | -1.82405 | 107.89814 | 33819 ft | 471 kts | 311° |
| 2026-05-06 06:55 | -1.78129 | 107.84852 | 33815 ft | 471 kts | 311° |
| 2026-05-06 06:55 | -1.73857 | 107.79895 | 33817 ft | 470 kts | 311° |
| 2026-05-06 06:56 | -1.69590 | 107.74944 | 33816 ft | 470 kts | 311° |
| 2026-05-06 06:56 | -1.65321 | 107.69990 | 33816 ft | 470 kts | 311° |
| 2026-05-06 06:57 | -1.61052 | 107.65037 | 33814 ft | 470 kts | 311° |
| 2026-05-06 06:57 | -1.56780 | 107.60080 | 33814 ft | 471 kts | 311° |
| 2026-05-06 06:58 | -1.52507 | 107.55124 | 33814 ft | 471 kts | 311° |
| 2026-05-06 06:58 | -1.48228 | 107.50159 | 33814 ft | 471 kts | 311° |
| 2026-05-06 06:59 | -1.43953 | 107.45200 | 33813 ft | 471 kts | 311° |